sensor_id;sensor_type;location;lat;lon;timestamp;P1;durP1;ratioP1;P2;durP2;ratioP2
313;SDS011;143;51.634;7.112;2024-02-21T00:00:43;50.00;;;16.87;;
313;SDS011;143;51.634;7.112;2024-02-21T00:03:09;41.87;;;16.73;;
313;SDS011;143;51.634;7.112;2024-02-21T00:05:34;42.57;;;16.00;;
313;SDS011;143;51.634;7.112;2024-02-21T00:08:00;33.27;;;14.63;;
313;SDS011;143;51.634;7.112;2024-02-21T00:10:25;44.27;;;15.27;;
313;SDS011;143;51.634;7.112;2024-02-21T00:12:51;41.43;;;15.53;;
313;SDS011;143;51.634;7.112;2024-02-21T00:15:17;33.23;;;15.70;;
313;SDS011;143;51.634;7.112;2024-02-21T00:17:43;52.47;;;16.60;;
313;SDS011;143;51.634;7.112;2024-02-21T00:20:09;51.17;;;18.67;;
313;SDS011;143;51.634;7.112;2024-02-21T00:22:35;40.03;;;17.10;;
313;SDS011;143;51.634;7.112;2024-02-21T00:25:01;44.07;;;15.47;;
313;SDS011;143;51.634;7.112;2024-02-21T00:27:26;46.10;;;17.20;;
313;SDS011;143;51.634;7.112;2024-02-21T00:29:53;46.40;;;15.57;;
313;SDS011;143;51.634;7.112;2024-02-21T00:32:18;37.50;;;15.10;;
313;SDS011;143;51.634;7.112;2024-02-21T00:34:44;40.03;;;15.57;;
313;SDS011;143;51.634;7.112;2024-02-21T00:37:09;50.60;;;15.83;;
313;SDS011;143;51.634;7.112;2024-02-21T00:39:35;42.90;;;16.40;;
313;SDS011;143;51.634;7.112;2024-02-21T00:42:00;50.60;;;16.50;;
313;SDS011;143;51.634;7.112;2024-02-21T00:44:26;47.73;;;17.03;;
313;SDS011;143;51.634;7.112;2024-02-21T00:46:51;42.20;;;15.80;;
313;SDS011;143;51.634;7.112;2024-02-21T00:49:17;37.53;;;15.70;;
313;SDS011;143;51.634;7.112;2024-02-21T00:51:43;32.30;;;15.50;;
313;SDS011;143;51.634;7.112;2024-02-21T00:54:08;44.57;;;15.40;;
313;SDS011;143;51.634;7.112;2024-02-21T00:56:34;39.20;;;15.60;;
313;SDS011;143;51.634;7.112;2024-02-21T00:59:00;46.57;;;14.87;;
313;SDS011;143;51.634;7.112;2024-02-21T01:01:25;35.40;;;15.23;;
313;SDS011;143;51.634;7.112;2024-02-21T01:03:51;46.93;;;15.20;;
313;SDS011;143;51.634;7.112;2024-02-21T01:06:19;33.90;;;14.43;;
313;SDS011;143;51.634;7.112;2024-02-21T01:08:48;38.53;;;16.33;;
313;SDS011;143;51.634;7.112;2024-02-21T01:11:14;38.53;;;14.63;;
313;SDS011;143;51.634;7.112;2024-02-21T01:13:41;44.33;;;16.27;;
313;SDS011;143;51.634;7.112;2024-02-21T01:16:07;32.37;;;15.10;;
313;SDS011;143;51.634;7.112;2024-02-21T01:18:41;49.73;;;16.10;;
313;SDS011;143;51.634;7.112;2024-02-21T01:21:07;39.10;;;16.93;;
313;SDS011;143;51.634;7.112;2024-02-21T01:23:36;40.40;;;17.03;;
313;SDS011;143;51.634;7.112;2024-02-21T01:26:02;37.63;;;14.67;;
313;SDS011;143;51.634;7.112;2024-02-21T01:28:29;40.73;;;15.70;;
313;SDS011;143;51.634;7.112;2024-02-21T01:30:55;47.30;;;16.67;;
313;SDS011;143;51.634;7.112;2024-02-21T01:33:21;39.03;;;14.83;;
313;SDS011;143;51.634;7.112;2024-02-21T01:35:47;52.83;;;16.60;;
313;SDS011;143;51.634;7.112;2024-02-21T01:38:12;31.10;;;14.60;;
313;SDS011;143;51.634;7.112;2024-02-21T01:40:38;43.50;;;15.23;;
313;SDS011;143;51.634;7.112;2024-02-21T01:43:06;36.57;;;15.30;;
313;SDS011;143;51.634;7.112;2024-02-21T01:45:41;43.03;;;15.67;;
313;SDS011;143;51.634;7.112;2024-02-21T01:48:06;40.93;;;14.77;;
313;SDS011;143;51.634;7.112;2024-02-21T01:50:32;43.07;;;16.40;;
313;SDS011;143;51.634;7.112;2024-02-21T01:52:58;39.20;;;16.03;;
313;SDS011;143;51.634;7.112;2024-02-21T01:55:24;48.40;;;16.53;;
313;SDS011;143;51.634;7.112;2024-02-21T01:57:50;37.20;;;13.50;;
313;SDS011;143;51.634;7.112;2024-02-21T02:00:16;44.23;;;16.87;;
313;SDS011;143;51.634;7.112;2024-02-21T02:02:42;43.77;;;15.43;;
313;SDS011;143;51.634;7.112;2024-02-21T02:05:09;42.50;;;14.90;;
313;SDS011;143;51.634;7.112;2024-02-21T02:07:36;43.23;;;15.20;;
313;SDS011;143;51.634;7.112;2024-02-21T02:10:02;47.60;;;14.87;;
313;SDS011;143;51.634;7.112;2024-02-21T02:12:27;33.40;;;14.50;;
313;SDS011;143;51.634;7.112;2024-02-21T02:15:02;40.03;;;14.40;;
313;SDS011;143;51.634;7.112;2024-02-21T02:17:31;35.03;;;13.87;;
313;SDS011;143;51.634;7.112;2024-02-21T02:19:57;32.97;;;14.33;;
313;SDS011;143;51.634;7.112;2024-02-21T02:22:24;32.93;;;12.90;;
313;SDS011;143;51.634;7.112;2024-02-21T02:24:54;29.93;;;11.97;;
313;SDS011;143;51.634;7.112;2024-02-21T02:27:20;32.13;;;13.07;;
313;SDS011;143;51.634;7.112;2024-02-21T02:29:47;39.63;;;13.30;;
313;SDS011;143;51.634;7.112;2024-02-21T02:32:13;26.03;;;12.53;;
313;SDS011;143;51.634;7.112;2024-02-21T02:34:39;32.50;;;13.43;;
313;SDS011;143;51.634;7.112;2024-02-21T02:37:04;41.03;;;13.47;;
313;SDS011;143;51.634;7.112;2024-02-21T02:39:30;31.13;;;12.97;;
313;SDS011;143;51.634;7.112;2024-02-21T02:41:56;33.83;;;12.53;;
313;SDS011;143;51.634;7.112;2024-02-21T02:44:21;33.03;;;12.60;;
313;SDS011;143;51.634;7.112;2024-02-21T02:46:47;32.73;;;12.10;;
313;SDS011;143;51.634;7.112;2024-02-21T02:49:12;39.07;;;13.10;;
313;SDS011;143;51.634;7.112;2024-02-21T02:51:41;34.97;;;13.27;;
313;SDS011;143;51.634;7.112;2024-02-21T02:54:07;29.77;;;13.40;;
313;SDS011;143;51.634;7.112;2024-02-21T02:56:33;30.80;;;11.90;;
313;SDS011;143;51.634;7.112;2024-02-21T02:58:58;34.53;;;12.77;;
313;SDS011;143;51.634;7.112;2024-02-21T03:01:24;28.97;;;12.30;;
313;SDS011;143;51.634;7.112;2024-02-21T03:03:50;29.80;;;12.20;;
313;SDS011;143;51.634;7.112;2024-02-21T03:06:15;32.17;;;12.50;;
313;SDS011;143;51.634;7.112;2024-02-21T03:08:41;33.53;;;11.90;;
313;SDS011;143;51.634;7.112;2024-02-21T03:11:07;33.13;;;12.80;;
313;SDS011;143;51.634;7.112;2024-02-21T03:13:33;37.43;;;13.60;;
313;SDS011;143;51.634;7.112;2024-02-21T03:15:59;35.47;;;12.80;;
313;SDS011;143;51.634;7.112;2024-02-21T03:18:24;28.90;;;12.93;;
313;SDS011;143;51.634;7.112;2024-02-21T03:20:50;25.07;;;11.50;;
313;SDS011;143;51.634;7.112;2024-02-21T03:23:15;29.33;;;12.00;;
313;SDS011;143;51.634;7.112;2024-02-21T03:25:41;36.63;;;12.20;;
313;SDS011;143;51.634;7.112;2024-02-21T03:28:06;41.47;;;14.27;;
313;SDS011;143;51.634;7.112;2024-02-21T03:30:32;34.37;;;13.13;;
313;SDS011;143;51.634;7.112;2024-02-21T03:32:58;29.30;;;12.33;;
313;SDS011;143;51.634;7.112;2024-02-21T03:35:24;49.67;;;14.17;;
313;SDS011;143;51.634;7.112;2024-02-21T03:37:51;31.90;;;13.27;;
313;SDS011;143;51.634;7.112;2024-02-21T03:40:18;31.90;;;12.50;;
313;SDS011;143;51.634;7.112;2024-02-21T03:42:44;39.50;;;13.70;;
313;SDS011;143;51.634;7.112;2024-02-21T03:45:09;52.03;;;13.73;;
313;SDS011;143;51.634;7.112;2024-02-21T03:47:35;37.17;;;12.40;;
313;SDS011;143;51.634;7.112;2024-02-21T03:50:01;31.60;;;13.70;;
313;SDS011;143;51.634;7.112;2024-02-21T03:52:26;32.17;;;12.77;;
313;SDS011;143;51.634;7.112;2024-02-21T03:54:52;27.93;;;13.47;;
313;SDS011;143;51.634;7.112;2024-02-21T03:57:19;28.33;;;12.00;;
313;SDS011;143;51.634;7.112;2024-02-21T03:59:45;32.10;;;12.17;;
313;SDS011;143;51.634;7.112;2024-02-21T04:02:11;26.60;;;13.03;;
313;SDS011;143;51.634;7.112;2024-02-21T04:04:37;49.87;;;13.27;;
313;SDS011;143;51.634;7.112;2024-02-21T04:07:02;41.53;;;14.23;;
313;SDS011;143;51.634;7.112;2024-02-21T04:09:32;31.53;;;12.73;;
313;SDS011;143;51.634;7.112;2024-02-21T04:11:58;31.87;;;12.87;;
313;SDS011;143;51.634;7.112;2024-02-21T04:14:24;44.80;;;13.60;;
313;SDS011;143;51.634;7.112;2024-02-21T04:16:50;42.57;;;13.40;;
313;SDS011;143;51.634;7.112;2024-02-21T04:19:15;37.07;;;12.90;;
313;SDS011;143;51.634;7.112;2024-02-21T04:21:41;32.70;;;12.47;;
313;SDS011;143;51.634;7.112;2024-02-21T04:24:07;33.30;;;14.20;;
313;SDS011;143;51.634;7.112;2024-02-21T04:26:32;32.03;;;12.63;;
313;SDS011;143;51.634;7.112;2024-02-21T04:28:58;35.73;;;12.10;;
313;SDS011;143;51.634;7.112;2024-02-21T04:31:24;24.90;;;12.13;;
313;SDS011;143;51.634;7.112;2024-02-21T04:33:49;39.83;;;13.50;;
313;SDS011;143;51.634;7.112;2024-02-21T04:36:15;40.47;;;12.20;;
313;SDS011;143;51.634;7.112;2024-02-21T04:38:40;38.17;;;13.27;;
313;SDS011;143;51.634;7.112;2024-02-21T04:41:06;34.83;;;12.50;;
313;SDS011;143;51.634;7.112;2024-02-21T04:43:31;27.53;;;13.90;;
313;SDS011;143;51.634;7.112;2024-02-21T04:45:57;35.47;;;11.90;;
313;SDS011;143;51.634;7.112;2024-02-21T04:48:23;31.63;;;12.90;;
313;SDS011;143;51.634;7.112;2024-02-21T04:50:48;31.03;;;12.60;;
313;SDS011;143;51.634;7.112;2024-02-21T04:53:14;29.93;;;13.10;;
313;SDS011;143;51.634;7.112;2024-02-21T04:55:41;28.70;;;11.70;;
313;SDS011;143;51.634;7.112;2024-02-21T04:58:06;33.13;;;11.80;;
313;SDS011;143;51.634;7.112;2024-02-21T05:00:32;30.63;;;12.30;;
313;SDS011;143;51.634;7.112;2024-02-21T05:02:58;45.57;;;11.83;;
313;SDS011;143;51.634;7.112;2024-02-21T05:05:23;32.27;;;12.33;;
313;SDS011;143;51.634;7.112;2024-02-21T05:07:49;30.73;;;10.60;;
313;SDS011;143;51.634;7.112;2024-02-21T05:10:14;27.43;;;11.23;;
313;SDS011;143;51.634;7.112;2024-02-21T05:12:40;23.20;;;10.10;;
313;SDS011;143;51.634;7.112;2024-02-21T05:15:05;28.40;;;10.43;;
313;SDS011;143;51.634;7.112;2024-02-21T05:17:31;34.13;;;12.80;;
313;SDS011;143;51.634;7.112;2024-02-21T05:19:57;24.97;;;10.73;;
313;SDS011;143;51.634;7.112;2024-02-21T05:22:22;27.40;;;11.03;;
313;SDS011;143;51.634;7.112;2024-02-21T05:24:48;28.03;;;11.97;;
313;SDS011;143;51.634;7.112;2024-02-21T05:27:13;25.73;;;10.87;;
313;SDS011;143;51.634;7.112;2024-02-21T05:29:39;25.37;;;11.87;;
313;SDS011;143;51.634;7.112;2024-02-21T05:32:05;19.33;;;9.90;;
313;SDS011;143;51.634;7.112;2024-02-21T05:34:31;23.17;;;10.80;;
313;SDS011;143;51.634;7.112;2024-02-21T05:36:56;30.43;;;10.23;;
313;SDS011;143;51.634;7.112;2024-02-21T05:39:24;27.90;;;11.27;;
313;SDS011;143;51.634;7.112;2024-02-21T05:41:50;28.80;;;11.00;;
313;SDS011;143;51.634;7.112;2024-02-21T05:44:15;32.23;;;10.10;;
313;SDS011;143;51.634;7.112;2024-02-21T05:46:41;23.20;;;10.40;;
313;SDS011;143;51.634;7.112;2024-02-21T05:49:07;23.13;;;9.47;;
313;SDS011;143;51.634;7.112;2024-02-21T05:51:33;28.80;;;10.20;;
313;SDS011;143;51.634;7.112;2024-02-21T05:53:59;29.10;;;10.43;;
313;SDS011;143;51.634;7.112;2024-02-21T05:56:25;33.40;;;11.40;;
313;SDS011;143;51.634;7.112;2024-02-21T05:58:50;22.50;;;8.83;;
313;SDS011;143;51.634;7.112;2024-02-21T06:01:16;20.70;;;9.73;;
313;SDS011;143;51.634;7.112;2024-02-21T06:03:42;26.87;;;10.53;;
313;SDS011;143;51.634;7.112;2024-02-21T06:06:08;30.70;;;10.40;;
313;SDS011;143;51.634;7.112;2024-02-21T06:08:34;18.23;;;8.50;;
313;SDS011;143;51.634;7.112;2024-02-21T06:10:59;18.97;;;8.33;;
313;SDS011;143;51.634;7.112;2024-02-21T06:13:25;27.43;;;8.17;;
313;SDS011;143;51.634;7.112;2024-02-21T06:15:50;32.70;;;8.13;;
313;SDS011;143;51.634;7.112;2024-02-21T06:18:19;26.57;;;8.67;;
313;SDS011;143;51.634;7.112;2024-02-21T06:20:45;18.00;;;9.40;;
313;SDS011;143;51.634;7.112;2024-02-21T06:23:15;28.13;;;8.47;;
313;SDS011;143;51.634;7.112;2024-02-21T06:25:41;18.90;;;9.03;;
313;SDS011;143;51.634;7.112;2024-02-21T06:28:07;21.23;;;8.40;;
313;SDS011;143;51.634;7.112;2024-02-21T06:30:33;19.43;;;8.57;;
313;SDS011;143;51.634;7.112;2024-02-21T06:32:59;25.30;;;8.77;;
313;SDS011;143;51.634;7.112;2024-02-21T06:35:24;18.07;;;8.73;;
313;SDS011;143;51.634;7.112;2024-02-21T06:37:50;20.20;;;8.83;;
313;SDS011;143;51.634;7.112;2024-02-21T06:40:22;24.93;;;8.00;;
313;SDS011;143;51.634;7.112;2024-02-21T06:42:49;19.70;;;9.10;;
313;SDS011;143;51.634;7.112;2024-02-21T06:45:15;15.03;;;7.47;;
313;SDS011;143;51.634;7.112;2024-02-21T06:47:41;21.07;;;8.30;;
313;SDS011;143;51.634;7.112;2024-02-21T06:50:07;24.57;;;7.63;;
313;SDS011;143;51.634;7.112;2024-02-21T06:52:33;22.13;;;8.03;;
313;SDS011;143;51.634;7.112;2024-02-21T06:54:59;22.70;;;8.40;;
313;SDS011;143;51.634;7.112;2024-02-21T06:57:25;22.10;;;7.77;;
313;SDS011;143;51.634;7.112;2024-02-21T06:59:50;21.27;;;8.10;;
313;SDS011;143;51.634;7.112;2024-02-21T07:02:16;18.60;;;7.97;;
313;SDS011;143;51.634;7.112;2024-02-21T07:04:41;24.43;;;8.63;;
313;SDS011;143;51.634;7.112;2024-02-21T07:07:07;23.60;;;9.40;;
313;SDS011;143;51.634;7.112;2024-02-21T07:09:33;22.70;;;7.63;;
313;SDS011;143;51.634;7.112;2024-02-21T07:11:58;18.17;;;6.73;;
313;SDS011;143;51.634;7.112;2024-02-21T07:14:24;39.60;;;8.07;;
313;SDS011;143;51.634;7.112;2024-02-21T07:16:50;14.67;;;7.43;;
313;SDS011;143;51.634;7.112;2024-02-21T07:19:16;19.87;;;8.37;;
313;SDS011;143;51.634;7.112;2024-02-21T07:21:42;21.03;;;8.63;;
313;SDS011;143;51.634;7.112;2024-02-21T07:24:08;25.40;;;7.80;;
313;SDS011;143;51.634;7.112;2024-02-21T07:26:34;26.40;;;7.23;;
313;SDS011;143;51.634;7.112;2024-02-21T07:28:59;17.67;;;7.20;;
313;SDS011;143;51.634;7.112;2024-02-21T07:31:25;19.50;;;8.73;;
313;SDS011;143;51.634;7.112;2024-02-21T07:33:50;20.13;;;8.33;;
313;SDS011;143;51.634;7.112;2024-02-21T07:36:23;16.87;;;7.77;;
313;SDS011;143;51.634;7.112;2024-02-21T07:38:58;27.43;;;8.07;;
313;SDS011;143;51.634;7.112;2024-02-21T07:41:27;15.57;;;7.97;;
313;SDS011;143;51.634;7.112;2024-02-21T07:43:55;17.00;;;8.93;;
313;SDS011;143;51.634;7.112;2024-02-21T07:46:20;23.90;;;9.43;;
313;SDS011;143;51.634;7.112;2024-02-21T07:48:46;22.87;;;7.73;;
313;SDS011;143;51.634;7.112;2024-02-21T07:51:12;18.90;;;6.87;;
313;SDS011;143;51.634;7.112;2024-02-21T07:53:40;20.63;;;8.23;;
313;SDS011;143;51.634;7.112;2024-02-21T07:56:13;17.43;;;7.10;;
313;SDS011;143;51.634;7.112;2024-02-21T07:58:39;17.77;;;7.70;;
313;SDS011;143;51.634;7.112;2024-02-21T08:01:08;18.90;;;7.90;;
313;SDS011;143;51.634;7.112;2024-02-21T08:03:33;19.93;;;7.73;;
313;SDS011;143;51.634;7.112;2024-02-21T08:05:59;21.30;;;8.20;;
313;SDS011;143;51.634;7.112;2024-02-21T08:08:24;18.53;;;7.40;;
313;SDS011;143;51.634;7.112;2024-02-21T08:10:51;22.10;;;8.47;;
313;SDS011;143;51.634;7.112;2024-02-21T08:13:17;19.20;;;7.60;;
313;SDS011;143;51.634;7.112;2024-02-21T08:15:42;15.47;;;7.57;;
313;SDS011;143;51.634;7.112;2024-02-21T08:18:08;26.37;;;7.77;;
313;SDS011;143;51.634;7.112;2024-02-21T08:20:34;22.73;;;7.47;;
313;SDS011;143;51.634;7.112;2024-02-21T08:22:59;15.57;;;5.87;;
313;SDS011;143;51.634;7.112;2024-02-21T08:25:25;17.60;;;7.40;;
313;SDS011;143;51.634;7.112;2024-02-21T08:27:51;16.47;;;7.37;;
313;SDS011;143;51.634;7.112;2024-02-21T08:30:16;16.80;;;7.47;;
313;SDS011;143;51.634;7.112;2024-02-21T08:32:42;18.97;;;7.47;;
313;SDS011;143;51.634;7.112;2024-02-21T08:35:08;11.70;;;6.57;;
313;SDS011;143;51.634;7.112;2024-02-21T08:37:33;16.70;;;6.53;;
313;SDS011;143;51.634;7.112;2024-02-21T08:39:59;18.63;;;8.10;;
313;SDS011;143;51.634;7.112;2024-02-21T08:42:29;16.40;;;6.73;;
313;SDS011;143;51.634;7.112;2024-02-21T08:44:55;14.70;;;6.83;;
313;SDS011;143;51.634;7.112;2024-02-21T08:47:20;15.97;;;6.80;;
313;SDS011;143;51.634;7.112;2024-02-21T08:49:46;13.70;;;5.53;;
313;SDS011;143;51.634;7.112;2024-02-21T08:52:13;14.53;;;6.57;;
313;SDS011;143;51.634;7.112;2024-02-21T08:54:38;13.40;;;5.70;;
313;SDS011;143;51.634;7.112;2024-02-21T08:57:04;11.93;;;6.53;;
313;SDS011;143;51.634;7.112;2024-02-21T08:59:29;15.67;;;6.90;;
313;SDS011;143;51.634;7.112;2024-02-21T09:01:55;12.40;;;6.83;;
313;SDS011;143;51.634;7.112;2024-02-21T09:04:20;16.03;;;5.90;;
313;SDS011;143;51.634;7.112;2024-02-21T09:06:46;14.17;;;5.67;;
313;SDS011;143;51.634;7.112;2024-02-21T09:09:12;17.23;;;5.50;;
313;SDS011;143;51.634;7.112;2024-02-21T09:11:37;18.13;;;6.27;;
313;SDS011;143;51.634;7.112;2024-02-21T09:14:04;19.77;;;5.50;;
313;SDS011;143;51.634;7.112;2024-02-21T09:16:32;22.37;;;6.93;;
313;SDS011;143;51.634;7.112;2024-02-21T09:18:58;19.37;;;7.77;;
313;SDS011;143;51.634;7.112;2024-02-21T09:21:24;22.37;;;6.13;;
313;SDS011;143;51.634;7.112;2024-02-21T09:23:49;21.90;;;6.30;;
313;SDS011;143;51.634;7.112;2024-02-21T09:26:15;17.13;;;5.90;;
313;SDS011;143;51.634;7.112;2024-02-21T09:28:42;17.93;;;5.63;;
313;SDS011;143;51.634;7.112;2024-02-21T09:31:08;21.33;;;7.03;;
313;SDS011;143;51.634;7.112;2024-02-21T09:33:33;14.63;;;5.80;;
313;SDS011;143;51.634;7.112;2024-02-21T09:35:59;14.13;;;6.23;;
313;SDS011;143;51.634;7.112;2024-02-21T09:38:24;9.77;;;5.00;;
313;SDS011;143;51.634;7.112;2024-02-21T09:41:00;13.17;;;5.53;;
313;SDS011;143;51.634;7.112;2024-02-21T09:43:36;11.17;;;4.97;;
313;SDS011;143;51.634;7.112;2024-02-21T09:46:05;19.27;;;5.90;;
313;SDS011;143;51.634;7.112;2024-02-21T09:48:42;15.00;;;4.90;;
313;SDS011;143;51.634;7.112;2024-02-21T09:51:20;16.27;;;4.40;;
313;SDS011;143;51.634;7.112;2024-02-21T09:53:46;12.10;;;4.33;;
313;SDS011;143;51.634;7.112;2024-02-21T09:56:13;17.40;;;4.00;;
313;SDS011;143;51.634;7.112;2024-02-21T09:58:39;11.83;;;4.03;;
313;SDS011;143;51.634;7.112;2024-02-21T10:01:06;13.13;;;3.50;;
313;SDS011;143;51.634;7.112;2024-02-21T10:03:32;7.27;;;3.30;;
313;SDS011;143;51.634;7.112;2024-02-21T10:06:00;16.50;;;4.17;;
313;SDS011;143;51.634;7.112;2024-02-21T10:08:26;12.63;;;3.37;;
313;SDS011;143;51.634;7.112;2024-02-21T10:10:52;10.37;;;3.90;;
313;SDS011;143;51.634;7.112;2024-02-21T10:13:24;13.80;;;3.37;;
313;SDS011;143;51.634;7.112;2024-02-21T10:16:07;7.93;;;3.20;;
313;SDS011;143;51.634;7.112;2024-02-21T10:18:33;12.47;;;3.23;;
313;SDS011;143;51.634;7.112;2024-02-21T10:21:02;9.67;;;3.43;;
313;SDS011;143;51.634;7.112;2024-02-21T10:23:29;6.50;;;3.00;;
313;SDS011;143;51.634;7.112;2024-02-21T10:26:05;13.43;;;3.40;;
313;SDS011;143;51.634;7.112;2024-02-21T10:28:32;7.73;;;3.07;;
313;SDS011;143;51.634;7.112;2024-02-21T10:30:57;9.97;;;3.90;;
313;SDS011;143;51.634;7.112;2024-02-21T10:33:23;7.33;;;3.60;;
313;SDS011;143;51.634;7.112;2024-02-21T10:35:50;10.23;;;3.60;;
313;SDS011;143;51.634;7.112;2024-02-21T10:38:16;18.33;;;4.13;;
313;SDS011;143;51.634;7.112;2024-02-21T10:40:42;15.73;;;4.07;;
313;SDS011;143;51.634;7.112;2024-02-21T10:43:10;15.10;;;4.67;;
313;SDS011;143;51.634;7.112;2024-02-21T10:45:38;13.37;;;4.17;;
313;SDS011;143;51.634;7.112;2024-02-21T10:48:08;9.80;;;4.03;;
313;SDS011;143;51.634;7.112;2024-02-21T10:51:02;17.27;;;5.57;;
313;SDS011;143;51.634;7.112;2024-02-21T10:53:44;13.03;;;4.93;;
313;SDS011;143;51.634;7.112;2024-02-21T10:56:26;9.60;;;5.13;;
313;SDS011;143;51.634;7.112;2024-02-21T10:58:59;10.10;;;5.37;;
313;SDS011;143;51.634;7.112;2024-02-21T11:01:26;11.70;;;5.97;;
313;SDS011;143;51.634;7.112;2024-02-21T11:03:54;15.20;;;6.27;;
313;SDS011;143;51.634;7.112;2024-02-21T11:06:21;16.70;;;6.03;;
313;SDS011;143;51.634;7.112;2024-02-21T11:08:48;16.70;;;5.57;;
313;SDS011;143;51.634;7.112;2024-02-21T11:11:25;10.33;;;5.10;;
313;SDS011;143;51.634;7.112;2024-02-21T11:13:50;13.03;;;4.73;;
313;SDS011;143;51.634;7.112;2024-02-21T11:16:22;16.00;;;5.73;;
313;SDS011;143;51.634;7.112;2024-02-21T11:18:48;14.67;;;6.10;;
313;SDS011;143;51.634;7.112;2024-02-21T11:21:14;17.17;;;4.67;;
313;SDS011;143;51.634;7.112;2024-02-21T11:23:40;19.13;;;5.30;;
313;SDS011;143;51.634;7.112;2024-02-21T11:28:32;10.33;;;4.53;;
313;SDS011;143;51.634;7.112;2024-02-21T11:31:07;11.30;;;4.43;;
313;SDS011;143;51.634;7.112;2024-02-21T11:33:40;8.10;;;3.70;;
313;SDS011;143;51.634;7.112;2024-02-21T11:36:09;10.57;;;3.57;;
313;SDS011;143;51.634;7.112;2024-02-21T11:38:35;13.00;;;4.43;;
313;SDS011;143;51.634;7.112;2024-02-21T11:41:01;9.40;;;4.60;;
313;SDS011;143;51.634;7.112;2024-02-21T11:43:27;11.53;;;4.37;;
313;SDS011;143;51.634;7.112;2024-02-21T11:46:02;9.23;;;3.53;;
313;SDS011;143;51.634;7.112;2024-02-21T11:48:28;8.80;;;4.30;;
313;SDS011;143;51.634;7.112;2024-02-21T11:50:56;9.00;;;4.33;;
313;SDS011;143;51.634;7.112;2024-02-21T11:53:22;13.30;;;4.20;;
313;SDS011;143;51.634;7.112;2024-02-21T11:55:48;15.03;;;4.80;;
313;SDS011;143;51.634;7.112;2024-02-21T11:58:15;13.83;;;4.17;;
313;SDS011;143;51.634;7.112;2024-02-21T12:00:41;9.70;;;4.20;;
313;SDS011;143;51.634;7.112;2024-02-21T12:03:06;15.60;;;4.57;;
313;SDS011;143;51.634;7.112;2024-02-21T12:05:33;13.63;;;4.10;;
313;SDS011;143;51.634;7.112;2024-02-21T12:07:58;9.03;;;4.33;;
313;SDS011;143;51.634;7.112;2024-02-21T12:10:25;14.90;;;4.57;;
313;SDS011;143;51.634;7.112;2024-02-21T12:13:04;11.43;;;4.63;;
313;SDS011;143;51.634;7.112;2024-02-21T12:15:31;19.10;;;5.40;;
313;SDS011;143;51.634;7.112;2024-02-21T12:17:56;13.10;;;5.03;;
313;SDS011;143;51.634;7.112;2024-02-21T12:20:25;14.53;;;4.70;;
313;SDS011;143;51.634;7.112;2024-02-21T12:22:50;19.43;;;4.97;;
313;SDS011;143;51.634;7.112;2024-02-21T12:25:17;10.43;;;4.90;;
313;SDS011;143;51.634;7.112;2024-02-21T12:27:51;12.07;;;4.73;;
313;SDS011;143;51.634;7.112;2024-02-21T12:30:17;11.77;;;4.77;;
313;SDS011;143;51.634;7.112;2024-02-21T12:32:44;20.87;;;5.33;;
313;SDS011;143;51.634;7.112;2024-02-21T12:35:10;14.50;;;4.70;;
313;SDS011;143;51.634;7.112;2024-02-21T12:37:36;13.97;;;4.80;;
313;SDS011;143;51.634;7.112;2024-02-21T12:40:03;13.77;;;5.77;;
313;SDS011;143;51.634;7.112;2024-02-21T12:42:32;14.00;;;5.07;;
313;SDS011;143;51.634;7.112;2024-02-21T12:44:58;21.43;;;4.80;;
313;SDS011;143;51.634;7.112;2024-02-21T12:47:24;15.80;;;5.23;;
313;SDS011;143;51.634;7.112;2024-02-21T12:49:51;12.80;;;4.53;;
313;SDS011;143;51.634;7.112;2024-02-21T12:52:17;11.90;;;4.10;;
313;SDS011;143;51.634;7.112;2024-02-21T12:54:43;10.70;;;4.10;;
313;SDS011;143;51.634;7.112;2024-02-21T12:57:09;12.57;;;4.50;;
313;SDS011;143;51.634;7.112;2024-02-21T12:59:34;12.43;;;3.93;;
313;SDS011;143;51.634;7.112;2024-02-21T13:02:01;12.93;;;4.87;;
313;SDS011;143;51.634;7.112;2024-02-21T13:04:26;9.53;;;4.67;;
313;SDS011;143;51.634;7.112;2024-02-21T13:06:52;9.20;;;4.13;;
313;SDS011;143;51.634;7.112;2024-02-21T13:09:17;10.17;;;3.90;;
313;SDS011;143;51.634;7.112;2024-02-21T13:11:43;14.20;;;4.40;;
313;SDS011;143;51.634;7.112;2024-02-21T13:14:12;9.20;;;3.77;;
313;SDS011;143;51.634;7.112;2024-02-21T13:16:37;14.90;;;4.07;;
313;SDS011;143;51.634;7.112;2024-02-21T13:19:08;13.20;;;4.17;;
313;SDS011;143;51.634;7.112;2024-02-21T13:21:35;14.13;;;5.17;;
313;SDS011;143;51.634;7.112;2024-02-21T13:24:01;12.00;;;4.47;;
313;SDS011;143;51.634;7.112;2024-02-21T13:26:26;9.47;;;3.63;;
313;SDS011;143;51.634;7.112;2024-02-21T13:28:52;15.20;;;5.07;;
313;SDS011;143;51.634;7.112;2024-02-21T13:31:18;10.80;;;3.90;;
313;SDS011;143;51.634;7.112;2024-02-21T13:33:44;16.93;;;3.47;;
313;SDS011;143;51.634;7.112;2024-02-21T13:36:10;12.93;;;3.93;;
313;SDS011;143;51.634;7.112;2024-02-21T13:38:36;9.57;;;2.97;;
313;SDS011;143;51.634;7.112;2024-02-21T13:41:03;11.23;;;3.53;;
313;SDS011;143;51.634;7.112;2024-02-21T13:43:32;21.20;;;3.53;;
313;SDS011;143;51.634;7.112;2024-02-21T13:45:59;12.80;;;3.77;;
313;SDS011;143;51.634;7.112;2024-02-21T13:48:27;10.43;;;3.47;;
313;SDS011;143;51.634;7.112;2024-02-21T13:50:54;16.87;;;3.80;;
313;SDS011;143;51.634;7.112;2024-02-21T13:53:20;9.00;;;3.00;;
313;SDS011;143;51.634;7.112;2024-02-21T13:55:46;8.83;;;3.33;;
313;SDS011;143;51.634;7.112;2024-02-21T13:58:12;13.87;;;3.80;;
313;SDS011;143;51.634;7.112;2024-02-21T14:00:38;10.00;;;3.47;;
313;SDS011;143;51.634;7.112;2024-02-21T14:03:03;11.83;;;4.47;;
313;SDS011;143;51.634;7.112;2024-02-21T14:05:29;12.20;;;3.20;;
313;SDS011;143;51.634;7.112;2024-02-21T14:07:55;12.23;;;3.87;;
313;SDS011;143;51.634;7.112;2024-02-21T14:10:21;10.93;;;3.43;;
313;SDS011;143;51.634;7.112;2024-02-21T14:12:46;15.13;;;3.83;;
313;SDS011;143;51.634;7.112;2024-02-21T14:15:15;10.07;;;3.80;;
313;SDS011;143;51.634;7.112;2024-02-21T14:17:41;11.20;;;3.87;;
313;SDS011;143;51.634;7.112;2024-02-21T14:20:07;10.23;;;3.03;;
313;SDS011;143;51.634;7.112;2024-02-21T14:22:33;6.70;;;2.80;;
313;SDS011;143;51.634;7.112;2024-02-21T14:24:59;9.63;;;3.60;;
313;SDS011;143;51.634;7.112;2024-02-21T14:27:25;13.83;;;3.17;;
313;SDS011;143;51.634;7.112;2024-02-21T14:29:51;7.57;;;2.97;;
313;SDS011;143;51.634;7.112;2024-02-21T14:32:16;8.57;;;3.17;;
313;SDS011;143;51.634;7.112;2024-02-21T14:34:42;10.17;;;3.80;;
313;SDS011;143;51.634;7.112;2024-02-21T14:37:07;8.60;;;3.10;;
313;SDS011;143;51.634;7.112;2024-02-21T14:39:33;7.73;;;2.90;;
313;SDS011;143;51.634;7.112;2024-02-21T14:42:00;6.87;;;4.00;;
313;SDS011;143;51.634;7.112;2024-02-21T14:44:25;10.30;;;3.50;;
313;SDS011;143;51.634;7.112;2024-02-21T14:46:52;14.67;;;4.00;;
313;SDS011;143;51.634;7.112;2024-02-21T14:49:17;11.97;;;3.97;;
313;SDS011;143;51.634;7.112;2024-02-21T14:51:44;10.83;;;3.60;;
313;SDS011;143;51.634;7.112;2024-02-21T14:54:09;11.23;;;3.03;;
313;SDS011;143;51.634;7.112;2024-02-21T14:56:35;13.33;;;3.20;;
313;SDS011;143;51.634;7.112;2024-02-21T14:59:01;9.57;;;2.80;;
313;SDS011;143;51.634;7.112;2024-02-21T15:01:27;7.80;;;3.13;;
313;SDS011;143;51.634;7.112;2024-02-21T15:03:52;21.63;;;3.30;;
313;SDS011;143;51.634;7.112;2024-02-21T15:06:18;12.10;;;3.50;;
313;SDS011;143;51.634;7.112;2024-02-21T15:08:43;10.53;;;3.10;;
313;SDS011;143;51.634;7.112;2024-02-21T15:11:09;11.53;;;2.97;;
313;SDS011;143;51.634;7.112;2024-02-21T15:13:34;9.27;;;3.30;;
313;SDS011;143;51.634;7.112;2024-02-21T15:16:01;7.33;;;3.87;;
313;SDS011;143;51.634;7.112;2024-02-21T15:18:27;9.33;;;3.60;;
313;SDS011;143;51.634;7.112;2024-02-21T15:20:53;8.67;;;3.30;;
313;SDS011;143;51.634;7.112;2024-02-21T15:23:18;8.23;;;3.40;;